sensor_id;sensor_type;location;lat;lon;timestamp;P1;durP1;ratioP1;P2;durP2;ratioP2
11827;SDS011;5971;49.646;8.568;2024-01-30T00:01:36;15.90;;;8.07;;
11827;SDS011;5971;49.646;8.568;2024-01-30T00:04:37;18.25;;;8.18;;
11827;SDS011;5971;49.646;8.568;2024-01-30T00:07:39;14.73;;;7.72;;
11827;SDS011;5971;49.646;8.568;2024-01-30T00:10:40;15.18;;;7.93;;
11827;SDS011;5971;49.646;8.568;2024-01-30T00:13:41;15.68;;;8.38;;
11827;SDS011;5971;49.646;8.568;2024-01-30T00:16:43;14.13;;;7.55;;
11827;SDS011;5971;49.646;8.568;2024-01-30T00:19:44;14.38;;;9.02;;
11827;SDS011;5971;49.646;8.568;2024-01-30T00:22:46;14.40;;;7.57;;
11827;SDS011;5971;49.646;8.568;2024-01-30T00:25:47;18.73;;;9.82;;
11827;SDS011;5971;49.646;8.568;2024-01-30T00:28:49;16.73;;;9.02;;
11827;SDS011;5971;49.646;8.568;2024-01-30T00:31:50;18.35;;;8.98;;
11827;SDS011;5971;49.646;8.568;2024-01-30T00:34:51;15.50;;;8.85;;
11827;SDS011;5971;49.646;8.568;2024-01-30T00:37:53;18.83;;;9.25;;
11827;SDS011;5971;49.646;8.568;2024-01-30T00:40:54;17.30;;;8.88;;
11827;SDS011;5971;49.646;8.568;2024-01-30T00:43:56;15.15;;;7.90;;
11827;SDS011;5971;49.646;8.568;2024-01-30T00:46:57;20.58;;;9.18;;
11827;SDS011;5971;49.646;8.568;2024-01-30T00:49:58;17.77;;;9.35;;
11827;SDS011;5971;49.646;8.568;2024-01-30T00:53:00;19.05;;;9.25;;
11827;SDS011;5971;49.646;8.568;2024-01-30T00:56:01;16.63;;;8.82;;
11827;SDS011;5971;49.646;8.568;2024-01-30T00:59:03;19.83;;;9.48;;
11827;SDS011;5971;49.646;8.568;2024-01-30T01:02:06;17.73;;;9.70;;
11827;SDS011;5971;49.646;8.568;2024-01-30T01:05:07;18.48;;;8.55;;
11827;SDS011;5971;49.646;8.568;2024-01-30T01:08:09;16.27;;;9.45;;
11827;SDS011;5971;49.646;8.568;2024-01-30T01:11:10;15.10;;;8.35;;
11827;SDS011;5971;49.646;8.568;2024-01-30T01:14:12;16.50;;;8.90;;
11827;SDS011;5971;49.646;8.568;2024-01-30T01:17:13;18.48;;;8.82;;
11827;SDS011;5971;49.646;8.568;2024-01-30T01:20:15;17.45;;;8.48;;
11827;SDS011;5971;49.646;8.568;2024-01-30T01:23:17;18.98;;;8.75;;
11827;SDS011;5971;49.646;8.568;2024-01-30T01:26:18;17.42;;;8.93;;
11827;SDS011;5971;49.646;8.568;2024-01-30T01:29:19;17.55;;;8.75;;
11827;SDS011;5971;49.646;8.568;2024-01-30T01:32:29;15.45;;;8.52;;
11827;SDS011;5971;49.646;8.568;2024-01-30T01:35:31;16.60;;;9.80;;
11827;SDS011;5971;49.646;8.568;2024-01-30T01:38:32;15.02;;;7.55;;
11827;SDS011;5971;49.646;8.568;2024-01-30T01:41:34;15.15;;;7.78;;
11827;SDS011;5971;49.646;8.568;2024-01-30T01:44:35;16.20;;;9.20;;
11827;SDS011;5971;49.646;8.568;2024-01-30T01:47:36;16.63;;;8.73;;
11827;SDS011;5971;49.646;8.568;2024-01-30T01:50:38;19.65;;;9.10;;
11827;SDS011;5971;49.646;8.568;2024-01-30T01:53:40;18.42;;;9.07;;
11827;SDS011;5971;49.646;8.568;2024-01-30T01:56:42;18.00;;;8.95;;
11827;SDS011;5971;49.646;8.568;2024-01-30T01:59:43;18.30;;;8.77;;
11827;SDS011;5971;49.646;8.568;2024-01-30T02:02:45;18.48;;;9.32;;
11827;SDS011;5971;49.646;8.568;2024-01-30T02:05:46;17.83;;;8.38;;
11827;SDS011;5971;49.646;8.568;2024-01-30T02:08:48;15.57;;;8.35;;
11827;SDS011;5971;49.646;8.568;2024-01-30T02:11:49;17.25;;;8.23;;
11827;SDS011;5971;49.646;8.568;2024-01-30T02:14:51;13.82;;;8.35;;
11827;SDS011;5971;49.646;8.568;2024-01-30T02:17:52;12.95;;;7.78;;
11827;SDS011;5971;49.646;8.568;2024-01-30T02:20:55;16.67;;;8.77;;
11827;SDS011;5971;49.646;8.568;2024-01-30T02:23:57;18.00;;;8.32;;
11827;SDS011;5971;49.646;8.568;2024-01-30T02:26:59;15.48;;;8.88;;
11827;SDS011;5971;49.646;8.568;2024-01-30T02:30:00;16.55;;;8.85;;
11827;SDS011;5971;49.646;8.568;2024-01-30T02:33:02;16.45;;;8.98;;
11827;SDS011;5971;49.646;8.568;2024-01-30T02:36:03;15.02;;;7.60;;
11827;SDS011;5971;49.646;8.568;2024-01-30T02:39:05;16.73;;;8.00;;
11827;SDS011;5971;49.646;8.568;2024-01-30T02:42:06;17.23;;;8.77;;
11827;SDS011;5971;49.646;8.568;2024-01-30T02:45:08;18.02;;;9.25;;
11827;SDS011;5971;49.646;8.568;2024-01-30T02:48:09;18.38;;;8.63;;
11827;SDS011;5971;49.646;8.568;2024-01-30T02:51:11;12.18;;;7.25;;
11827;SDS011;5971;49.646;8.568;2024-01-30T02:54:12;13.43;;;7.25;;
11827;SDS011;5971;49.646;8.568;2024-01-30T02:57:14;14.88;;;7.90;;
11827;SDS011;5971;49.646;8.568;2024-01-30T03:00:15;16.95;;;8.50;;
11827;SDS011;5971;49.646;8.568;2024-01-30T03:03:16;15.90;;;7.82;;
11827;SDS011;5971;49.646;8.568;2024-01-30T03:06:18;15.40;;;8.07;;
11827;SDS011;5971;49.646;8.568;2024-01-30T03:09:21;14.73;;;8.50;;
11827;SDS011;5971;49.646;8.568;2024-01-30T03:12:22;17.63;;;8.38;;
11827;SDS011;5971;49.646;8.568;2024-01-30T03:15:23;13.25;;;7.88;;
11827;SDS011;5971;49.646;8.568;2024-01-30T03:18:25;16.42;;;7.65;;
11827;SDS011;5971;49.646;8.568;2024-01-30T03:21:26;14.18;;;7.32;;
11827;SDS011;5971;49.646;8.568;2024-01-30T03:24:27;17.98;;;8.40;;
11827;SDS011;5971;49.646;8.568;2024-01-30T03:27:29;16.27;;;8.20;;
11827;SDS011;5971;49.646;8.568;2024-01-30T03:30:30;15.63;;;8.73;;
11827;SDS011;5971;49.646;8.568;2024-01-30T03:33:31;14.85;;;8.20;;
11827;SDS011;5971;49.646;8.568;2024-01-30T03:36:33;16.27;;;8.82;;
11827;SDS011;5971;49.646;8.568;2024-01-30T03:39:35;16.63;;;8.27;;
11827;SDS011;5971;49.646;8.568;2024-01-30T03:42:37;17.63;;;8.93;;
11827;SDS011;5971;49.646;8.568;2024-01-30T03:45:39;19.25;;;9.45;;
11827;SDS011;5971;49.646;8.568;2024-01-30T03:48:40;16.08;;;9.13;;
11827;SDS011;5971;49.646;8.568;2024-01-30T03:51:42;21.83;;;8.73;;
11827;SDS011;5971;49.646;8.568;2024-01-30T03:54:43;14.85;;;8.30;;
11827;SDS011;5971;49.646;8.568;2024-01-30T03:57:44;15.57;;;8.20;;
11827;SDS011;5971;49.646;8.568;2024-01-30T04:00:46;18.10;;;8.63;;
11827;SDS011;5971;49.646;8.568;2024-01-30T04:03:47;18.27;;;8.85;;
11827;SDS011;5971;49.646;8.568;2024-01-30T04:06:49;18.80;;;9.38;;
11827;SDS011;5971;49.646;8.568;2024-01-30T04:09:50;19.55;;;9.82;;
11827;SDS011;5971;49.646;8.568;2024-01-30T04:12:52;16.10;;;8.98;;
11827;SDS011;5971;49.646;8.568;2024-01-30T04:15:53;19.25;;;9.20;;
11827;SDS011;5971;49.646;8.568;2024-01-30T04:18:56;16.30;;;8.48;;
11827;SDS011;5971;49.646;8.568;2024-01-30T04:21:58;15.45;;;8.35;;
11827;SDS011;5971;49.646;8.568;2024-01-30T04:24:59;14.80;;;8.15;;
11827;SDS011;5971;49.646;8.568;2024-01-30T04:28:00;14.88;;;7.97;;
11827;SDS011;5971;49.646;8.568;2024-01-30T04:31:02;14.77;;;7.53;;
11827;SDS011;5971;49.646;8.568;2024-01-30T04:34:03;18.50;;;9.25;;
11827;SDS011;5971;49.646;8.568;2024-01-30T04:37:05;17.27;;;9.38;;
11827;SDS011;5971;49.646;8.568;2024-01-30T04:40:06;18.63;;;9.70;;
11827;SDS011;5971;49.646;8.568;2024-01-30T04:43:08;18.38;;;9.13;;
11827;SDS011;5971;49.646;8.568;2024-01-30T04:46:09;15.63;;;9.07;;
11827;SDS011;5971;49.646;8.568;2024-01-30T04:49:11;15.32;;;8.20;;
11827;SDS011;5971;49.646;8.568;2024-01-30T04:52:12;16.65;;;9.00;;
11827;SDS011;5971;49.646;8.568;2024-01-30T04:55:14;16.15;;;9.15;;
11827;SDS011;5971;49.646;8.568;2024-01-30T04:58:15;16.60;;;8.52;;
11827;SDS011;5971;49.646;8.568;2024-01-30T05:01:16;21.33;;;9.63;;
11827;SDS011;5971;49.646;8.568;2024-01-30T05:04:18;19.25;;;9.15;;
11827;SDS011;5971;49.646;8.568;2024-01-30T05:07:20;18.45;;;9.40;;
11827;SDS011;5971;49.646;8.568;2024-01-30T05:10:21;16.70;;;8.18;;
11827;SDS011;5971;49.646;8.568;2024-01-30T05:13:23;19.95;;;9.77;;
11827;SDS011;5971;49.646;8.568;2024-01-30T05:16:24;21.05;;;10.35;;
11827;SDS011;5971;49.646;8.568;2024-01-30T05:19:25;18.40;;;9.02;;
11827;SDS011;5971;49.646;8.568;2024-01-30T05:22:27;22.15;;;9.98;;
11827;SDS011;5971;49.646;8.568;2024-01-30T05:25:28;16.48;;;9.07;;
11827;SDS011;5971;49.646;8.568;2024-01-30T05:28:30;18.02;;;8.98;;
11827;SDS011;5971;49.646;8.568;2024-01-30T05:31:31;18.80;;;10.32;;
11827;SDS011;5971;49.646;8.568;2024-01-30T05:34:33;19.77;;;9.95;;
11827;SDS011;5971;49.646;8.568;2024-01-30T05:37:34;18.10;;;9.05;;
11827;SDS011;5971;49.646;8.568;2024-01-30T05:40:35;20.08;;;9.35;;
11827;SDS011;5971;49.646;8.568;2024-01-30T05:43:37;16.63;;;8.25;;
11827;SDS011;5971;49.646;8.568;2024-01-30T05:46:38;14.25;;;7.40;;
11827;SDS011;5971;49.646;8.568;2024-01-30T05:49:40;20.80;;;10.32;;
11827;SDS011;5971;49.646;8.568;2024-01-30T05:52:41;17.58;;;8.95;;
11827;SDS011;5971;49.646;8.568;2024-01-30T05:55:42;15.98;;;8.85;;
11827;SDS011;5971;49.646;8.568;2024-01-30T05:58:44;17.25;;;9.18;;
11827;SDS011;5971;49.646;8.568;2024-01-30T06:01:46;19.83;;;9.45;;
11827;SDS011;5971;49.646;8.568;2024-01-30T06:04:48;18.13;;;9.57;;
11827;SDS011;5971;49.646;8.568;2024-01-30T06:07:49;17.98;;;9.77;;
11827;SDS011;5971;49.646;8.568;2024-01-30T06:10:54;18.75;;;9.57;;
11827;SDS011;5971;49.646;8.568;2024-01-30T06:13:55;19.33;;;10.88;;
11827;SDS011;5971;49.646;8.568;2024-01-30T06:16:56;16.00;;;8.20;;
11827;SDS011;5971;49.646;8.568;2024-01-30T06:19:58;18.35;;;9.25;;
11827;SDS011;5971;49.646;8.568;2024-01-30T06:22:59;16.17;;;8.70;;
11827;SDS011;5971;49.646;8.568;2024-01-30T06:26:00;18.95;;;9.80;;
11827;SDS011;5971;49.646;8.568;2024-01-30T06:29:02;18.15;;;10.02;;
11827;SDS011;5971;49.646;8.568;2024-01-30T06:32:04;22.38;;;9.77;;
11827;SDS011;5971;49.646;8.568;2024-01-30T06:35:05;18.42;;;9.60;;
11827;SDS011;5971;49.646;8.568;2024-01-30T06:38:07;18.23;;;11.85;;
11827;SDS011;5971;49.646;8.568;2024-01-30T06:41:08;18.20;;;9.65;;
11827;SDS011;5971;49.646;8.568;2024-01-30T06:44:09;17.20;;;9.45;;
11827;SDS011;5971;49.646;8.568;2024-01-30T06:47:11;22.58;;;10.25;;
11827;SDS011;5971;49.646;8.568;2024-01-30T06:50:12;22.42;;;12.52;;
11827;SDS011;5971;49.646;8.568;2024-01-30T06:53:14;22.40;;;10.52;;
11827;SDS011;5971;49.646;8.568;2024-01-30T06:56:15;17.95;;;9.10;;
11827;SDS011;5971;49.646;8.568;2024-01-30T06:59:17;17.55;;;9.40;;
11827;SDS011;5971;49.646;8.568;2024-01-30T07:02:19;21.23;;;11.35;;
11827;SDS011;5971;49.646;8.568;2024-01-30T07:05:20;23.52;;;11.45;;
11827;SDS011;5971;49.646;8.568;2024-01-30T07:08:23;22.08;;;10.90;;
11827;SDS011;5971;49.646;8.568;2024-01-30T07:11:24;21.77;;;10.77;;
11827;SDS011;5971;49.646;8.568;2024-01-30T07:14:26;21.88;;;10.18;;
11827;SDS011;5971;49.646;8.568;2024-01-30T07:17:27;24.52;;;11.20;;
11827;SDS011;5971;49.646;8.568;2024-01-30T07:20:29;21.67;;;10.02;;
11827;SDS011;5971;49.646;8.568;2024-01-30T07:23:31;19.90;;;10.52;;
11827;SDS011;5971;49.646;8.568;2024-01-30T07:26:35;19.17;;;10.32;;
11827;SDS011;5971;49.646;8.568;2024-01-30T07:29:36;22.02;;;10.63;;
11827;SDS011;5971;49.646;8.568;2024-01-30T07:32:38;19.83;;;10.75;;
11827;SDS011;5971;49.646;8.568;2024-01-30T07:35:39;27.13;;;11.82;;
11827;SDS011;5971;49.646;8.568;2024-01-30T07:38:41;21.00;;;11.05;;
11827;SDS011;5971;49.646;8.568;2024-01-30T07:41:42;22.08;;;12.68;;
11827;SDS011;5971;49.646;8.568;2024-01-30T07:44:43;20.58;;;11.40;;
11827;SDS011;5971;49.646;8.568;2024-01-30T07:47:45;25.08;;;12.88;;
11827;SDS011;5971;49.646;8.568;2024-01-30T07:50:46;24.02;;;12.30;;
11827;SDS011;5971;49.646;8.568;2024-01-30T07:53:48;21.33;;;12.27;;
11827;SDS011;5971;49.646;8.568;2024-01-30T07:56:49;25.98;;;13.15;;
11827;SDS011;5971;49.646;8.568;2024-01-30T07:59:50;28.45;;;14.00;;
11827;SDS011;5971;49.646;8.568;2024-01-30T08:02:52;30.20;;;13.25;;
11827;SDS011;5971;49.646;8.568;2024-01-30T08:05:55;27.20;;;13.90;;
11827;SDS011;5971;49.646;8.568;2024-01-30T08:08:57;27.65;;;14.07;;
11827;SDS011;5971;49.646;8.568;2024-01-30T08:12:00;28.25;;;14.05;;
11827;SDS011;5971;49.646;8.568;2024-01-30T08:15:01;29.63;;;15.30;;
11827;SDS011;5971;49.646;8.568;2024-01-30T08:18:04;24.70;;;13.23;;
11827;SDS011;5971;49.646;8.568;2024-01-30T08:21:08;28.00;;;14.18;;
11827;SDS011;5971;49.646;8.568;2024-01-30T08:24:10;25.48;;;13.05;;
11827;SDS011;5971;49.646;8.568;2024-01-30T08:27:11;22.88;;;13.10;;
11827;SDS011;5971;49.646;8.568;2024-01-30T08:30:13;27.65;;;13.38;;
11827;SDS011;5971;49.646;8.568;2024-01-30T08:33:14;22.95;;;12.80;;
11827;SDS011;5971;49.646;8.568;2024-01-30T08:36:16;24.98;;;13.10;;
11827;SDS011;5971;49.646;8.568;2024-01-30T08:39:18;25.30;;;13.68;;
11827;SDS011;5971;49.646;8.568;2024-01-30T08:42:20;23.63;;;14.23;;
11827;SDS011;5971;49.646;8.568;2024-01-30T08:45:24;23.15;;;12.85;;
11827;SDS011;5971;49.646;8.568;2024-01-30T08:48:25;23.42;;;12.13;;
11827;SDS011;5971;49.646;8.568;2024-01-30T08:51:27;23.77;;;13.30;;
11827;SDS011;5971;49.646;8.568;2024-01-30T08:54:28;20.35;;;11.20;;
11827;SDS011;5971;49.646;8.568;2024-01-30T08:57:29;19.70;;;11.75;;
11827;SDS011;5971;49.646;8.568;2024-01-30T09:00:31;24.00;;;12.95;;
11827;SDS011;5971;49.646;8.568;2024-01-30T09:03:33;24.15;;;13.15;;
11827;SDS011;5971;49.646;8.568;2024-01-30T09:06:35;29.80;;;13.75;;
11827;SDS011;5971;49.646;8.568;2024-01-30T09:09:39;28.58;;;13.30;;
11827;SDS011;5971;49.646;8.568;2024-01-30T09:12:42;22.92;;;12.52;;
11827;SDS011;5971;49.646;8.568;2024-01-30T09:15:43;20.17;;;11.43;;
11827;SDS011;5971;49.646;8.568;2024-01-30T09:18:44;13.23;;;7.55;;
11827;SDS011;5971;49.646;8.568;2024-01-30T09:21:46;17.58;;;9.52;;
11827;SDS011;5971;49.646;8.568;2024-01-30T09:24:47;16.13;;;8.40;;
11827;SDS011;5971;49.646;8.568;2024-01-30T09:27:49;16.38;;;8.32;;
11827;SDS011;5971;49.646;8.568;2024-01-30T09:30:50;16.95;;;7.93;;
11827;SDS011;5971;49.646;8.568;2024-01-30T09:33:52;15.50;;;7.47;;
11827;SDS011;5971;49.646;8.568;2024-01-30T09:36:55;12.35;;;7.35;;
11827;SDS011;5971;49.646;8.568;2024-01-30T09:39:57;13.45;;;7.60;;
11827;SDS011;5971;49.646;8.568;2024-01-30T09:42:58;12.60;;;7.65;;
11827;SDS011;5971;49.646;8.568;2024-01-30T09:46:01;11.52;;;6.75;;
11827;SDS011;5971;49.646;8.568;2024-01-30T09:49:04;13.95;;;8.05;;
11827;SDS011;5971;49.646;8.568;2024-01-30T09:52:07;13.10;;;7.82;;
11827;SDS011;5971;49.646;8.568;2024-01-30T09:55:09;13.60;;;7.47;;
11827;SDS011;5971;49.646;8.568;2024-01-30T09:58:11;14.43;;;7.30;;
11827;SDS011;5971;49.646;8.568;2024-01-30T10:01:13;16.13;;;8.10;;
11827;SDS011;5971;49.646;8.568;2024-01-30T10:04:14;14.10;;;7.90;;
11827;SDS011;5971;49.646;8.568;2024-01-30T10:07:16;12.88;;;7.28;;
11827;SDS011;5971;49.646;8.568;2024-01-30T10:10:18;12.95;;;7.53;;
11827;SDS011;5971;49.646;8.568;2024-01-30T10:13:19;12.48;;;7.68;;
11827;SDS011;5971;49.646;8.568;2024-01-30T10:16:22;14.70;;;7.55;;
11827;SDS011;5971;49.646;8.568;2024-01-30T10:19:23;13.15;;;7.60;;
11827;SDS011;5971;49.646;8.568;2024-01-30T10:22:24;11.63;;;6.95;;
11827;SDS011;5971;49.646;8.568;2024-01-30T10:25:26;11.45;;;6.80;;
11827;SDS011;5971;49.646;8.568;2024-01-30T10:28:27;11.05;;;6.63;;
11827;SDS011;5971;49.646;8.568;2024-01-30T10:31:31;13.13;;;7.10;;
11827;SDS011;5971;49.646;8.568;2024-01-30T10:34:32;14.77;;;8.02;;
11827;SDS011;5971;49.646;8.568;2024-01-30T10:37:35;11.90;;;7.05;;
11827;SDS011;5971;49.646;8.568;2024-01-30T10:40:37;13.40;;;8.25;;
11827;SDS011;5971;49.646;8.568;2024-01-30T10:43:40;12.35;;;7.30;;
11827;SDS011;5971;49.646;8.568;2024-01-30T10:46:42;14.07;;;7.13;;
11827;SDS011;5971;49.646;8.568;2024-01-30T10:49:46;12.60;;;7.35;;
11827;SDS011;5971;49.646;8.568;2024-01-30T10:52:48;12.80;;;6.90;;
11827;SDS011;5971;49.646;8.568;2024-01-30T10:55:51;11.70;;;7.28;;
11827;SDS011;5971;49.646;8.568;2024-01-30T10:58:53;12.07;;;7.90;;
11827;SDS011;5971;49.646;8.568;2024-01-30T11:01:55;11.70;;;6.63;;
11827;SDS011;5971;49.646;8.568;2024-01-30T11:04:57;11.50;;;7.07;;
11827;SDS011;5971;49.646;8.568;2024-01-30T11:08:10;12.57;;;7.50;;
11827;SDS011;5971;49.646;8.568;2024-01-30T11:11:11;13.40;;;7.45;;
11827;SDS011;5971;49.646;8.568;2024-01-30T11:14:16;12.27;;;6.82;;
11827;SDS011;5971;49.646;8.568;2024-01-30T11:17:18;12.73;;;7.35;;
11827;SDS011;5971;49.646;8.568;2024-01-30T11:20:23;12.45;;;7.93;;
11827;SDS011;5971;49.646;8.568;2024-01-30T11:23:26;12.55;;;6.97;;
11827;SDS011;5971;49.646;8.568;2024-01-30T11:26:28;15.13;;;9.75;;
11827;SDS011;5971;49.646;8.568;2024-01-30T11:29:30;13.50;;;8.27;;
11827;SDS011;5971;49.646;8.568;2024-01-30T11:32:31;16.67;;;10.20;;
11827;SDS011;5971;49.646;8.568;2024-01-30T11:35:34;12.13;;;7.60;;
11827;SDS011;5971;49.646;8.568;2024-01-30T11:38:35;12.30;;;6.63;;
11827;SDS011;5971;49.646;8.568;2024-01-30T11:41:37;11.45;;;6.82;;
11827;SDS011;5971;49.646;8.568;2024-01-30T11:44:39;17.27;;;9.45;;
11827;SDS011;5971;49.646;8.568;2024-01-30T11:47:40;12.88;;;7.93;;
11827;SDS011;5971;49.646;8.568;2024-01-30T11:50:45;9.75;;;6.45;;
11827;SDS011;5971;49.646;8.568;2024-01-30T11:53:49;11.98;;;6.88;;
11827;SDS011;5971;49.646;8.568;2024-01-30T11:56:50;14.45;;;7.75;;
11827;SDS011;5971;49.646;8.568;2024-01-30T11:59:52;12.63;;;8.18;;
11827;SDS011;5971;49.646;8.568;2024-01-30T12:02:54;17.50;;;9.45;;
11827;SDS011;5971;49.646;8.568;2024-01-30T12:06:00;13.95;;;8.65;;
11827;SDS011;5971;49.646;8.568;2024-01-30T12:09:02;10.85;;;6.43;;
11827;SDS011;5971;49.646;8.568;2024-01-30T12:12:06;12.25;;;6.78;;
11827;SDS011;5971;49.646;8.568;2024-01-30T12:15:08;12.27;;;6.95;;
11827;SDS011;5971;49.646;8.568;2024-01-30T12:18:09;9.15;;;5.68;;
11827;SDS011;5971;49.646;8.568;2024-01-30T12:21:11;12.10;;;6.47;;
11827;SDS011;5971;49.646;8.568;2024-01-30T12:24:12;14.73;;;8.55;;
11827;SDS011;5971;49.646;8.568;2024-01-30T12:27:15;14.52;;;7.15;;
11827;SDS011;5971;49.646;8.568;2024-01-30T12:30:18;10.48;;;6.32;;
11827;SDS011;5971;49.646;8.568;2024-01-30T12:33:20;13.20;;;6.97;;
11827;SDS011;5971;49.646;8.568;2024-01-30T12:36:22;10.27;;;6.38;;
11827;SDS011;5971;49.646;8.568;2024-01-30T12:39:24;11.07;;;6.70;;
11827;SDS011;5971;49.646;8.568;2024-01-30T12:42:26;13.32;;;7.30;;
11827;SDS011;5971;49.646;8.568;2024-01-30T12:45:27;11.20;;;6.82;;
11827;SDS011;5971;49.646;8.568;2024-01-30T12:48:29;11.52;;;6.93;;
11827;SDS011;5971;49.646;8.568;2024-01-30T12:51:33;10.57;;;6.10;;
11827;SDS011;5971;49.646;8.568;2024-01-30T12:54:35;12.10;;;6.68;;
11827;SDS011;5971;49.646;8.568;2024-01-30T12:57:37;12.30;;;7.35;;
11827;SDS011;5971;49.646;8.568;2024-01-30T13:00:40;12.88;;;6.45;;
11827;SDS011;5971;49.646;8.568;2024-01-30T13:03:41;12.52;;;6.78;;
11827;SDS011;5971;49.646;8.568;2024-01-30T13:06:43;11.15;;;7.00;;
11827;SDS011;5971;49.646;8.568;2024-01-30T13:09:44;12.70;;;6.90;;
11827;SDS011;5971;49.646;8.568;2024-01-30T13:12:45;13.23;;;7.05;;
11827;SDS011;5971;49.646;8.568;2024-01-30T13:15:47;14.68;;;7.47;;
11827;SDS011;5971;49.646;8.568;2024-01-30T13:18:49;11.52;;;6.78;;
11827;SDS011;5971;49.646;8.568;2024-01-30T13:21:51;13.15;;;7.82;;
11827;SDS011;5971;49.646;8.568;2024-01-30T13:24:52;12.23;;;6.95;;
11827;SDS011;5971;49.646;8.568;2024-01-30T13:27:54;12.23;;;7.13;;
11827;SDS011;5971;49.646;8.568;2024-01-30T13:30:55;11.90;;;6.25;;
11827;SDS011;5971;49.646;8.568;2024-01-30T13:33:56;10.63;;;6.55;;
11827;SDS011;5971;49.646;8.568;2024-01-30T13:36:58;11.52;;;6.78;;
11827;SDS011;5971;49.646;8.568;2024-01-30T13:40:01;13.63;;;7.50;;
11827;SDS011;5971;49.646;8.568;2024-01-30T13:43:06;13.48;;;7.40;;
11827;SDS011;5971;49.646;8.568;2024-01-30T13:46:08;11.52;;;6.90;;
11827;SDS011;5971;49.646;8.568;2024-01-30T13:49:09;12.88;;;7.40;;
11827;SDS011;5971;49.646;8.568;2024-01-30T13:52:11;14.55;;;7.97;;
11827;SDS011;5971;49.646;8.568;2024-01-30T13:55:12;15.32;;;7.57;;
11827;SDS011;5971;49.646;8.568;2024-01-30T13:58:14;12.43;;;7.57;;
11827;SDS011;5971;49.646;8.568;2024-01-30T14:01:16;11.50;;;6.78;;
11827;SDS011;5971;49.646;8.568;2024-01-30T14:04:17;12.18;;;7.57;;
11827;SDS011;5971;49.646;8.568;2024-01-30T14:07:19;11.50;;;7.03;;
11827;SDS011;5971;49.646;8.568;2024-01-30T14:10:20;12.90;;;7.38;;
11827;SDS011;5971;49.646;8.568;2024-01-30T14:13:22;13.57;;;7.90;;
11827;SDS011;5971;49.646;8.568;2024-01-30T14:16:23;13.00;;;7.20;;
11827;SDS011;5971;49.646;8.568;2024-01-30T14:19:25;11.80;;;7.05;;
11827;SDS011;5971;49.646;8.568;2024-01-30T14:22:27;12.52;;;7.70;;
11827;SDS011;5971;49.646;8.568;2024-01-30T14:25:28;13.50;;;7.43;;
11827;SDS011;5971;49.646;8.568;2024-01-30T14:28:30;13.65;;;7.65;;
11827;SDS011;5971;49.646;8.568;2024-01-30T14:31:31;11.25;;;7.30;;
11827;SDS011;5971;49.646;8.568;2024-01-30T14:34:33;13.27;;;7.22;;
11827;SDS011;5971;49.646;8.568;2024-01-30T14:37:34;10.93;;;6.32;;
11827;SDS011;5971;49.646;8.568;2024-01-30T14:40:36;13.68;;;7.40;;
11827;SDS011;5971;49.646;8.568;2024-01-30T14:43:38;12.60;;;7.32;;
11827;SDS011;5971;49.646;8.568;2024-01-30T14:46:39;10.50;;;6.55;;
11827;SDS011;5971;49.646;8.568;2024-01-30T14:49:41;12.13;;;6.82;;
11827;SDS011;5971;49.646;8.568;2024-01-30T14:52:42;12.73;;;7.38;;
11827;SDS011;5971;49.646;8.568;2024-01-30T14:55:44;14.45;;;7.15;;
11827;SDS011;5971;49.646;8.568;2024-01-30T14:58:45;10.93;;;6.68;;
11827;SDS011;5971;49.646;8.568;2024-01-30T15:01:47;13.55;;;6.72;;
11827;SDS011;5971;49.646;8.568;2024-01-30T15:04:49;12.57;;;6.93;;
11827;SDS011;5971;49.646;8.568;2024-01-30T15:07:51;12.40;;;6.55;;
11827;SDS011;5971;49.646;8.568;2024-01-30T15:10:52;12.18;;;7.05;;
11827;SDS011;5971;49.646;8.568;2024-01-30T15:13:54;11.63;;;6.82;;
11827;SDS011;5971;49.646;8.568;2024-01-30T15:16:56;11.50;;;7.15;;
11827;SDS011;5971;49.646;8.568;2024-01-30T15:20:00;16.15;;;9.23;;
11827;SDS011;5971;49.646;8.568;2024-01-30T15:23:01;14.65;;;8.18;;
11827;SDS011;5971;49.646;8.568;2024-01-30T15:26:03;13.45;;;7.78;;
11827;SDS011;5971;49.646;8.568;2024-01-30T15:29:04;13.05;;;7.75;;
11827;SDS011;5971;49.646;8.568;2024-01-30T15:32:06;14.02;;;7.10;;
11827;SDS011;5971;49.646;8.568;2024-01-30T15:35:07;13.82;;;6.82;;
11827;SDS011;5971;49.646;8.568;2024-01-30T15:38:09;13.73;;;6.72;;
11827;SDS011;5971;49.646;8.568;2024-01-30T15:41:12;11.57;;;6.65;;
11827;SDS011;5971;49.646;8.568;2024-01-30T15:44:14;10.65;;;6.43;;
11827;SDS011;5971;49.646;8.568;2024-01-30T15:47:15;12.18;;;6.82;;
11827;SDS011;5971;49.646;8.568;2024-01-30T15:50:17;11.65;;;7.25;;
11827;SDS011;5971;49.646;8.568;2024-01-30T15:53:21;13.07;;;6.97;;
11827;SDS011;5971;49.646;8.568;2024-01-30T15:59:24;11.95;;;6.00;;
11827;SDS011;5971;49.646;8.568;2024-01-30T16:02:28;10.80;;;6.68;;
11827;SDS011;5971;49.646;8.568;2024-01-30T16:05:30;10.27;;;6.05;;
11827;SDS011;5971;49.646;8.568;2024-01-30T16:08:31;15.25;;;7.38;;
11827;SDS011;5971;49.646;8.568;2024-01-30T16:11:32;12.52;;;7.18;;
11827;SDS011;5971;49.646;8.568;2024-01-30T16:14:34;15.07;;;8.27;;
11827;SDS011;5971;49.646;8.568;2024-01-30T16:17:37;13.65;;;7.22;;
11827;SDS011;5971;49.646;8.568;2024-01-30T16:20:39;15.10;;;6.72;;
11827;SDS011;5971;49.646;8.568;2024-01-30T16:23:40;17.77;;;7.55;;
11827;SDS011;5971;49.646;8.568;2024-01-30T16:26:41;11.93;;;5.93;;
11827;SDS011;5971;49.646;8.568;2024-01-30T16:29:43;10.02;;;5.93;;
11827;SDS011;5971;49.646;8.568;2024-01-30T16:32:44;9.50;;;5.78;;
11827;SDS011;5971;49.646;8.568;2024-01-30T16:35:46;10.32;;;5.45;;
11827;SDS011;5971;49.646;8.568;2024-01-30T16:38:51;10.25;;;4.97;;
11827;SDS011;5971;49.646;8.568;2024-01-30T16:41:52;9.23;;;4.93;;
11827;SDS011;5971;49.646;8.568;2024-01-30T16:44:53;11.57;;;6.15;;
11827;SDS011;5971;49.646;8.568;2024-01-30T16:47:55;11.82;;;6.32;;
11827;SDS011;5971;49.646;8.568;2024-01-30T16:50:56;11.50;;;5.85;;
11827;SDS011;5971;49.646;8.568;2024-01-30T16:53:58;10.82;;;6.10;;
11827;SDS011;5971;49.646;8.568;2024-01-30T16:57:01;11.00;;;5.65;;
11827;SDS011;5971;49.646;8.568;2024-01-30T17:00:02;11.52;;;6.45;;
11827;SDS011;5971;49.646;8.568;2024-01-30T17:03:04;11.70;;;6.07;;
11827;SDS011;5971;49.646;8.568;2024-01-30T17:06:06;11.20;;;5.60;;
11827;SDS011;5971;49.646;8.568;2024-01-30T17:09:09;10.70;;;5.43;;
11827;SDS011;5971;49.646;8.568;2024-01-30T17:12:12;11.30;;;6.38;;
11827;SDS011;5971;49.646;8.568;2024-01-30T17:15:14;9.57;;;5.70;;
11827;SDS011;5971;49.646;8.568;2024-01-30T17:18:16;9.77;;;4.88;;
11827;SDS011;5971;49.646;8.568;2024-01-30T17:21:17;11.70;;;6.35;;
11827;SDS011;5971;49.646;8.568;2024-01-30T17:24:19;10.68;;;5.40;;
11827;SDS011;5971;49.646;8.568;2024-01-30T17:27:25;10.13;;;5.82;;
11827;SDS011;5971;49.646;8.568;2024-01-30T17:30:27;11.07;;;5.50;;
11827;SDS011;5971;49.646;8.568;2024-01-30T17:33:30;10.93;;;6.70;;
11827;SDS011;5971;49.646;8.568;2024-01-30T17:36:32;12.60;;;6.85;;
11827;SDS011;5971;49.646;8.568;2024-01-30T17:39:34;10.68;;;6.00;;
11827;SDS011;5971;49.646;8.568;2024-01-30T17:42:35;11.02;;;6.15;;
11827;SDS011;5971;49.646;8.568;2024-01-30T17:45:36;9.88;;;6.20;;
11827;SDS011;5971;49.646;8.568;2024-01-30T17:48:39;11.85;;;6.60;;
11827;SDS011;5971;49.646;8.568;2024-01-30T17:51:40;11.63;;;6.45;;
11827;SDS011;5971;49.646;8.568;2024-01-30T17:54:42;11.05;;;6.35;;
11827;SDS011;5971;49.646;8.568;2024-01-30T17:57:44;13.10;;;7.25;;
11827;SDS011;5971;49.646;8.568;2024-01-30T18:00:45;10.77;;;6.15;;
11827;SDS011;5971;49.646;8.568;2024-01-30T18:03:47;11.68;;;6.28;;
11827;SDS011;5971;49.646;8.568;2024-01-30T18:06:51;12.43;;;6.30;;
11827;SDS011;5971;49.646;8.568;2024-01-30T18:09:54;12.88;;;7.15;;
11827;SDS011;5971;49.646;8.568;2024-01-30T18:12:56;11.75;;;6.80;;
11827;SDS011;5971;49.646;8.568;2024-01-30T18:16:00;13.30;;;7.43;;